createdAt,value
2023-03-18T00:01:07.590Z,64.50
2023-03-18T00:03:37.610Z,64.30
2023-03-18T00:06:13.112Z,64.20
2023-03-18T00:08:41.952Z,63.60
2023-03-18T00:11:11.341Z,64.00
2023-03-18T00:13:38.803Z,63.90
2023-03-18T00:16:07.854Z,64.00
2023-03-18T00:18:34.983Z,64.00
2023-03-18T00:21:03.743Z,64.20
2023-03-18T00:23:32.060Z,64.30
2023-03-18T00:26:03.052Z,64.50
2023-03-18T00:28:33.955Z,64.50
2023-03-18T00:31:08.632Z,64.70
2023-03-18T00:33:40.804Z,62.90
2023-03-18T00:36:10.277Z,64.80
2023-03-18T00:38:37.505Z,64.90
2023-03-18T00:41:11.215Z,65.10
2023-03-18T00:43:46.980Z,65.30
2023-03-18T00:46:17.862Z,65.20
2023-03-18T00:48:45.755Z,65.50
2023-03-18T00:51:17.064Z,63.90
2023-03-18T00:53:48.303Z,65.50
2023-03-18T00:56:18.165Z,65.50
2023-03-18T00:58:46.843Z,65.50
2023-03-18T01:01:15.401Z,65.50
2023-03-18T01:03:43.688Z,65.40
2023-03-18T01:06:13.327Z,65.30
2023-03-18T01:08:42.409Z,65.10
2023-03-18T01:11:10.831Z,65.10
2023-03-18T01:13:39.382Z,65.70
2023-03-18T01:16:08.607Z,65.10
2023-03-18T01:18:37.775Z,65.10
2023-03-18T01:21:05.259Z,65.20
2023-03-18T01:23:32.092Z,65.20
2023-03-18T01:25:59.315Z,65.30
2023-03-18T01:28:27.387Z,65.40
2023-03-18T01:30:55.499Z,65.40
2023-03-18T01:33:24.060Z,65.50
2023-03-18T01:35:56.978Z,65.70
2023-03-18T01:38:26.559Z,65.40
2023-03-18T01:40:54.639Z,65.60
2023-03-18T01:43:28.016Z,65.60
2023-03-18T01:45:59.478Z,65.60
2023-03-18T01:48:30.880Z,65.70
2023-03-18T01:51:05.332Z,65.80
2023-03-18T01:53:40.850Z,65.90
2023-03-18T01:56:09.113Z,66.00
2023-03-18T01:58:45.317Z,66.10
2023-03-18T02:01:34.700Z,65.80
2023-03-18T02:04:06.203Z,65.20
2023-03-18T02:06:33.503Z,66.20
2023-03-18T02:09:01.463Z,66.40
2023-03-18T02:11:32.061Z,66.40
2023-03-18T02:14:01.061Z,66.40
2023-03-18T02:16:44.320Z,66.40
2023-03-18T02:19:33.718Z,65.70
2023-03-18T02:22:35.309Z,65.30
2023-03-18T02:25:50.341Z,64.60
2023-03-18T02:28:24.747Z,64.30
2023-03-18T02:30:58.357Z,65.40
2023-03-18T02:33:38.728Z,65.40
2023-03-18T02:36:27.836Z,65.50
2023-03-18T02:38:56.504Z,65.50
2023-03-18T02:41:29.277Z,65.50
2023-03-18T02:43:56.605Z,65.20
2023-03-18T02:46:54.066Z,65.30
2023-03-18T02:49:24.039Z,63.60
2023-03-18T02:51:52.021Z,65.20
2023-03-18T02:54:30.074Z,65.10
2023-03-18T02:56:57.815Z,64.80
2023-03-18T02:59:25.607Z,64.90
2023-03-18T03:01:55.692Z,64.80
2023-03-18T03:04:25.543Z,64.60
2023-03-18T03:06:54.422Z,64.70
2023-03-18T03:09:22.731Z,64.70
2023-03-18T03:11:49.749Z,64.60
2023-03-18T03:14:17.439Z,64.60
2023-03-18T03:16:44.353Z,64.50
2023-03-18T03:19:11.386Z,64.50
2023-03-18T03:21:38.255Z,64.40
2023-03-18T03:24:06.700Z,64.30
2023-03-18T03:26:34.434Z,64.20
2023-03-18T03:29:02.148Z,64.20
2023-03-18T03:31:29.088Z,64.10
2023-03-18T03:33:56.355Z,64.00
2023-03-18T03:36:23.600Z,63.90
2023-03-18T03:38:50.536Z,63.80
2023-03-18T03:41:18.043Z,63.70
2023-03-18T03:43:45.477Z,63.60
2023-03-18T03:46:12.486Z,63.50
2023-03-18T03:48:39.972Z,63.50
2023-03-18T03:51:07.757Z,63.50
2023-03-18T03:53:36.190Z,63.30
2023-03-18T03:56:04.610Z,63.30
2023-03-18T03:58:31.476Z,63.30
2023-03-18T04:00:58.379Z,63.20
2023-03-18T04:03:25.772Z,63.10
2023-03-18T04:05:53.036Z,63.00
2023-03-18T04:08:20.680Z,63.00
2023-03-18T04:10:47.717Z,62.90
2023-03-18T04:13:14.626Z,62.90
2023-03-18T04:15:41.844Z,62.90
2023-03-18T04:18:08.991Z,62.80
2023-03-18T04:20:38.766Z,62.80
2023-03-18T04:23:07.408Z,62.60
2023-03-18T04:25:35.293Z,62.60
2023-03-18T04:28:02.812Z,62.60
2023-03-18T04:30:30.864Z,62.60
2023-03-18T04:32:59.664Z,62.60
2023-03-18T04:35:26.942Z,62.60
2023-03-18T04:37:54.684Z,62.60
2023-03-18T04:40:21.784Z,62.60
2023-03-18T04:42:48.749Z,62.40
2023-03-18T04:45:16.846Z,62.50
2023-03-18T04:47:45.261Z,62.40
2023-03-18T04:50:14.623Z,62.40
2023-03-18T04:52:43.715Z,62.20
2023-03-18T04:55:12.272Z,62.40
2023-03-18T04:57:39.751Z,62.40
2023-03-18T05:00:11.619Z,62.60
2023-03-18T05:02:39.964Z,62.60
2023-03-18T05:05:08.178Z,62.50
2023-03-18T05:07:35.469Z,62.50
2023-03-18T05:10:06.846Z,62.50
2023-03-18T05:12:34.146Z,62.50
2023-03-18T05:15:01.282Z,62.50
2023-03-18T05:17:28.743Z,62.50
2023-03-18T05:19:55.754Z,62.70
2023-03-18T05:22:22.838Z,62.80
2023-03-18T05:24:50.323Z,62.80
2023-03-18T05:27:19.409Z,62.90
2023-03-18T05:29:46.626Z,63.00
2023-03-18T05:32:14.790Z,63.00
2023-03-18T05:34:42.774Z,63.10
2023-03-18T05:37:14.362Z,63.10
2023-03-18T05:39:44.380Z,63.00
2023-03-18T05:42:12.591Z,63.20
2023-03-18T05:44:40.383Z,63.40
2023-03-18T05:47:08.470Z,63.40
2023-03-18T05:49:36.214Z,63.50
2023-03-18T05:52:03.164Z,63.50
2023-03-18T05:54:30.097Z,63.40
2023-03-18T05:56:57.045Z,63.50
2023-03-18T05:59:25.108Z,63.50
2023-03-18T06:01:53.862Z,63.60
2023-03-18T06:04:20.853Z,63.60
2023-03-18T06:06:48.285Z,63.80
2023-03-18T06:09:15.536Z,63.90
2023-03-18T06:11:45.662Z,64.00
2023-03-18T06:14:13.597Z,64.00
2023-03-18T06:16:41.961Z,64.10
2023-03-18T06:19:10.766Z,64.10
2023-03-18T06:21:39.304Z,64.10
2023-03-18T06:24:07.346Z,64.20
2023-03-18T06:26:34.698Z,64.10
2023-03-18T06:29:01.599Z,64.60
2023-03-18T06:31:28.598Z,64.10
2023-03-18T06:33:55.466Z,64.10
2023-03-18T06:36:22.539Z,64.00
2023-03-18T06:38:49.510Z,63.90
2023-03-18T06:41:17.129Z,63.90
2023-03-18T06:43:44.652Z,64.10
2023-03-18T06:46:11.632Z,64.30
2023-03-18T06:48:40.335Z,64.30
2023-03-18T06:51:08.258Z,64.20
2023-03-18T06:53:36.501Z,63.90
2023-03-18T06:56:06.048Z,63.70
2023-03-18T06:58:33.522Z,63.50
2023-03-18T07:01:01.460Z,63.50
2023-03-18T07:03:28.373Z,63.50
2023-03-18T07:05:56.102Z,63.40
2023-03-18T07:08:23.534Z,63.30
2023-03-18T07:10:54.712Z,63.30
2023-03-18T07:13:22.608Z,63.00
2023-03-18T07:15:49.478Z,63.30
2023-03-18T07:18:17.023Z,63.50
2023-03-18T07:20:43.968Z,63.70
2023-03-18T07:23:11.341Z,63.60
2023-03-18T07:25:38.312Z,63.50
2023-03-18T07:28:05.797Z,63.40
2023-03-18T07:30:33.954Z,63.20
2023-03-18T07:33:01.116Z,63.10
2023-03-18T07:35:28.776Z,63.00
2023-03-18T07:37:57.080Z,62.80
2023-03-18T07:40:24.474Z,62.80
2023-03-18T07:42:54.454Z,62.80
2023-03-18T07:45:21.381Z,62.70
2023-03-18T07:47:48.367Z,63.00
2023-03-18T07:50:15.776Z,62.70
2023-03-18T07:52:42.969Z,62.40
2023-03-18T07:55:11.959Z,62.20
2023-03-18T07:57:39.360Z,62.00
2023-03-18T08:00:10.477Z,61.60
2023-03-18T08:02:37.987Z,61.10
2023-03-18T08:05:06.987Z,61.20
2023-03-18T08:07:35.733Z,61.10
2023-03-18T08:10:02.919Z,61.20
2023-03-18T08:12:38.469Z,60.90
2023-03-18T08:15:16.289Z,60.30
2023-03-18T08:17:43.265Z,60.20
2023-03-18T08:20:12.332Z,59.70
2023-03-18T08:22:39.313Z,59.10
2023-03-18T08:25:06.721Z,58.80
2023-03-18T08:27:33.596Z,58.40
2023-03-18T08:30:03.359Z,58.30
2023-03-18T08:32:33.644Z,58.00
2023-03-18T08:35:01.461Z,57.80
2023-03-18T08:37:28.907Z,57.60
2023-03-18T08:39:55.726Z,57.20
2023-03-18T08:42:22.954Z,57.10
2023-03-18T08:44:50.992Z,56.90
2023-03-18T08:47:17.909Z,56.90
2023-03-18T08:49:49.216Z,56.50
2023-03-18T08:52:19.194Z,55.30
2023-03-18T08:54:46.073Z,55.90
2023-03-18T08:57:12.952Z,56.10
2023-03-18T08:59:39.787Z,55.90
2023-03-18T09:02:07.517Z,55.70
2023-03-18T09:04:34.362Z,55.50
2023-03-18T09:07:03.276Z,55.30
2023-03-18T09:09:42.666Z,55.20
2023-03-18T09:12:12.040Z,54.90
2023-03-18T09:14:40.409Z,54.00
2023-03-18T09:17:07.773Z,54.00
2023-03-18T09:19:35.248Z,53.70
2023-03-18T09:22:02.135Z,53.80
2023-03-18T09:24:28.999Z,53.40
2023-03-18T09:26:55.937Z,52.50
2023-03-18T09:29:23.839Z,52.10
2023-03-18T09:31:50.856Z,52.50
2023-03-18T09:34:17.687Z,51.90
2023-03-18T09:36:50.932Z,51.80
2023-03-18T09:39:21.882Z,51.00
2023-03-18T09:42:00.579Z,51.30
2023-03-18T09:44:33.999Z,47.20
2023-03-18T09:47:06.999Z,48.70
2023-03-18T09:49:52.763Z,50.90
2023-03-18T09:52:31.636Z,48.90
2023-03-18T09:55:40.261Z,48.70
2023-03-18T09:58:28.626Z,46.80
2023-03-18T10:01:03.494Z,46.40
2023-03-18T10:03:42.482Z,46.90
2023-03-18T10:06:21.219Z,46.80
2023-03-18T10:09:14.499Z,45.20
2023-03-18T10:11:51.285Z,45.80
2023-03-18T10:14:35.853Z,47.70
2023-03-18T10:17:23.666Z,46.50
2023-03-18T10:19:58.357Z,45.20
2023-03-18T10:23:02.991Z,45.50
2023-03-18T10:25:54.581Z,46.20
2023-03-18T10:29:25.557Z,44.30
2023-03-18T10:32:11.669Z,43.80
2023-03-18T10:35:06.914Z,43.30
2023-03-18T10:38:14.045Z,43.60
2023-03-18T10:40:43.081Z,42.00
2023-03-18T10:43:19.473Z,44.70
2023-03-18T10:45:51.823Z,40.90
2023-03-18T10:48:28.637Z,43.20
2023-03-18T10:51:21.502Z,42.80
2023-03-18T10:54:10.392Z,42.00
2023-03-18T10:56:37.734Z,38.10
2023-03-18T10:59:24.724Z,40.50
2023-03-18T11:02:14.575Z,37.80
2023-03-18T11:05:00.050Z,35.90
2023-03-18T11:07:28.739Z,36.50
2023-03-18T11:10:11.756Z,38.70
2023-03-18T11:12:38.644Z,38.30
2023-03-18T11:15:11.058Z,38.00
2023-03-18T11:17:40.634Z,36.80
2023-03-18T11:20:47.574Z,37.30
2023-03-18T11:23:58.756Z,36.10
2023-03-18T11:26:29.865Z,36.40
2023-03-18T11:29:13.179Z,39.30
2023-03-18T11:31:54.757Z,36.20
2023-03-18T11:34:22.505Z,36.60
2023-03-18T11:37:08.303Z,38.50
2023-03-18T11:39:39.242Z,35.80
2023-03-18T11:42:22.565Z,38.20
2023-03-18T11:44:54.767Z,35.70
2023-03-18T11:47:30.439Z,37.70
2023-03-18T11:49:57.538Z,38.10
2023-03-18T11:52:52.211Z,38.70
2023-03-18T11:55:39.612Z,37.30
2023-03-18T11:58:28.039Z,36.90
2023-03-18T12:01:37.265Z,38.90
2023-03-18T12:04:37.212Z,37.00
2023-03-18T12:07:50.842Z,37.50
2023-03-18T12:11:19.244Z,38.70
2023-03-18T12:14:22.642Z,38.40
2023-03-18T12:17:15.212Z,39.40
2023-03-18T12:20:09.889Z,39.30
2023-03-18T12:22:58.457Z,42.40
2023-03-18T12:25:43.982Z,43.00
2023-03-18T12:28:39.050Z,40.20
2023-03-18T12:31:40.655Z,40.30
2023-03-18T12:35:03.748Z,41.00
2023-03-18T12:37:55.521Z,41.40
2023-03-18T12:40:43.435Z,43.80
2023-03-18T12:43:28.245Z,41.30
2023-03-18T12:46:18.163Z,42.50
2023-03-18T12:49:38.939Z,42.10
2023-03-18T12:52:30.195Z,41.60
2023-03-18T12:55:27.245Z,43.70
2023-03-18T12:58:03.379Z,41.70
2023-03-18T13:00:39.995Z,43.00
2023-03-18T13:03:31.967Z,43.80
2023-03-18T13:06:27.132Z,41.70
2023-03-18T13:09:08.140Z,41.60
2023-03-18T13:12:09.518Z,42.70
2023-03-18T13:14:45.441Z,42.40
2023-03-18T13:17:29.717Z,44.20
2023-03-18T13:20:00.946Z,42.50
2023-03-18T13:22:57.677Z,44.10
2023-03-18T13:25:45.042Z,45.00
2023-03-18T13:28:55.277Z,41.80
2023-03-18T13:31:39.152Z,41.50
2023-03-18T13:34:26.638Z,41.80
2023-03-18T13:37:08.549Z,44.50
2023-03-18T13:39:53.545Z,41.00
2023-03-18T13:42:36.036Z,41.20
2023-03-18T13:45:06.863Z,41.10
2023-03-18T13:47:38.459Z,44.60
2023-03-18T13:50:32.841Z,45.10
2023-03-18T13:53:02.896Z,44.80
2023-03-18T13:55:47.394Z,45.70
2023-03-18T13:58:45.243Z,42.60
2023-03-18T14:01:29.407Z,41.30
2023-03-18T14:04:16.454Z,43.10
2023-03-18T14:07:21.156Z,41.20
2023-03-18T14:10:19.109Z,39.20
2023-03-18T14:12:48.348Z,42.40
2023-03-18T14:15:15.726Z,42.40
2023-03-18T14:17:58.162Z,42.50
2023-03-18T14:20:38.911Z,40.90
2023-03-18T14:23:24.641Z,41.10
2023-03-18T14:26:21.149Z,40.90
2023-03-18T14:28:56.371Z,40.60
2023-03-18T14:31:51.948Z,44.50
2023-03-18T14:34:18.883Z,41.80
2023-03-18T14:36:55.545Z,45.00
2023-03-18T14:39:40.971Z,43.70
2023-03-18T14:42:43.821Z,42.50
2023-03-18T14:45:27.968Z,38.10
2023-03-18T14:47:59.465Z,37.80
2023-03-18T14:50:43.149Z,41.20
2023-03-18T14:53:33.042Z,37.60
2023-03-18T14:56:02.544Z,39.50
2023-03-18T14:58:29.651Z,40.50
2023-03-18T15:01:09.992Z,40.00
2023-03-18T15:03:40.331Z,36.00
2023-03-18T15:06:08.481Z,39.60
2023-03-18T15:08:47.670Z,40.00
2023-03-18T15:11:17.079Z,38.80
2023-03-18T15:13:44.901Z,40.40
2023-03-18T15:16:18.220Z,40.10
2023-03-18T15:18:45.620Z,40.20
2023-03-18T15:21:26.024Z,40.70
2023-03-18T15:23:56.660Z,37.20
2023-03-18T15:26:33.955Z,39.50
2023-03-18T15:29:28.011Z,36.70
2023-03-18T15:32:14.873Z,38.50
2023-03-18T15:34:45.932Z,39.50
2023-03-18T15:37:40.072Z,39.40
2023-03-18T15:40:26.063Z,36.70
2023-03-18T15:43:09.949Z,37.20
2023-03-18T15:45:47.033Z,37.40
2023-03-18T15:48:35.134Z,37.70
2023-03-18T15:51:22.267Z,36.50
2023-03-18T15:53:57.668Z,37.10
2023-03-18T15:56:30.093Z,37.60
2023-03-18T15:59:28.682Z,37.90
2023-03-18T16:01:59.795Z,38.40
2023-03-18T16:04:34.002Z,38.60
2023-03-18T16:07:00.800Z,37.00
2023-03-18T16:09:27.626Z,39.20
2023-03-18T16:12:01.088Z,39.40
2023-03-18T16:14:38.389Z,37.90
2023-03-18T16:17:05.611Z,36.90
2023-03-18T16:19:32.464Z,38.90
2023-03-18T16:21:59.944Z,38.50
2023-03-18T16:24:27.050Z,38.60
2023-03-18T16:26:55.704Z,38.50
2023-03-18T16:29:27.843Z,38.50
2023-03-18T16:31:54.869Z,37.70
2023-03-18T16:34:22.496Z,39.20
2023-03-18T16:36:51.389Z,39.30
2023-03-18T16:39:24.314Z,39.40
2023-03-18T16:41:52.364Z,39.40
2023-03-18T16:44:23.571Z,40.00
2023-03-18T16:46:54.921Z,40.20
2023-03-18T16:49:27.090Z,40.20
2023-03-18T16:51:53.922Z,40.30
2023-03-18T16:54:33.670Z,41.10
2023-03-18T16:57:04.452Z,39.50
2023-03-18T16:59:38.144Z,41.10
2023-03-18T17:02:05.615Z,40.90
2023-03-18T17:04:35.315Z,41.80
2023-03-18T17:07:04.730Z,41.70
2023-03-18T17:09:31.999Z,42.00
2023-03-18T17:12:04.828Z,41.90
2023-03-18T17:14:41.483Z,41.80
2023-03-18T17:17:32.938Z,41.90
2023-03-18T17:20:00.123Z,40.30
2023-03-18T17:22:30.800Z,42.50
2023-03-18T17:25:00.159Z,42.30
2023-03-18T17:27:51.334Z,42.60
2023-03-18T17:30:38.344Z,42.40
2023-03-18T17:33:29.163Z,41.40
2023-03-18T17:35:56.525Z,41.70
2023-03-18T17:38:23.798Z,43.60
2023-03-18T17:40:52.367Z,43.50
2023-03-18T17:43:33.822Z,43.70
2023-03-18T17:46:03.421Z,43.30
2023-03-18T17:48:37.611Z,43.80
2023-03-18T17:51:24.709Z,43.80
2023-03-18T17:54:00.309Z,42.30
2023-03-18T17:56:27.935Z,44.00
2023-03-18T17:58:55.286Z,44.70
2023-03-18T18:01:28.600Z,44.80
2023-03-18T18:03:58.464Z,44.30
2023-03-18T18:06:29.275Z,44.90
2023-03-18T18:09:02.219Z,45.20
2023-03-18T18:11:38.891Z,45.40
2023-03-18T18:14:24.626Z,44.90
2023-03-18T18:16:53.702Z,44.20
2023-03-18T18:19:20.825Z,45.90
2023-03-18T18:21:49.183Z,46.10
2023-03-18T18:24:38.226Z,46.30
2023-03-18T18:27:06.298Z,45.70
2023-03-18T18:29:35.137Z,46.50
2023-03-18T18:32:02.400Z,46.60
2023-03-18T18:34:32.350Z,46.60
2023-03-18T18:36:59.193Z,46.50
2023-03-18T18:39:26.015Z,46.90
2023-03-18T18:41:53.111Z,47.20
2023-03-18T18:44:20.236Z,47.40
2023-03-18T18:46:47.245Z,47.60
2023-03-18T18:49:24.266Z,47.70
2023-03-18T18:51:56.011Z,47.30
2023-03-18T18:54:24.725Z,47.80
2023-03-18T18:56:52.625Z,47.90
2023-03-18T18:59:33.930Z,48.10
2023-03-18T19:02:01.026Z,47.90
2023-03-18T19:04:29.104Z,48.40
2023-03-18T19:06:56.223Z,48.60
2023-03-18T19:09:26.160Z,48.80
2023-03-18T19:11:56.063Z,48.90
2023-03-18T19:14:25.326Z,49.10
2023-03-18T19:16:54.678Z,49.20
2023-03-18T19:19:27.778Z,49.20
2023-03-18T19:21:54.721Z,49.00
2023-03-18T19:24:37.961Z,49.40
2023-03-18T19:27:16.215Z,49.60
2023-03-18T19:29:44.512Z,49.60
2023-03-18T19:32:20.255Z,49.80
2023-03-18T19:34:49.770Z,49.60
2023-03-18T19:37:28.751Z,50.10
2023-03-18T19:39:57.044Z,50.20
2023-03-18T19:42:24.129Z,50.20
2023-03-18T19:44:51.082Z,50.30
2023-03-18T19:47:28.552Z,50.40
2023-03-18T19:49:55.779Z,50.10
2023-03-18T19:52:27.106Z,50.60
2023-03-18T19:54:55.346Z,50.60
2023-03-18T19:57:30.234Z,50.80
2023-03-18T19:59:58.964Z,50.50
2023-03-18T20:02:31.918Z,50.90
2023-03-18T20:05:02.886Z,51.00
2023-03-18T20:07:35.291Z,51.10
2023-03-18T20:10:02.141Z,51.20
2023-03-18T20:12:42.175Z,51.30
2023-03-18T20:15:15.914Z,51.40
2023-03-18T20:17:45.909Z,51.30
2023-03-18T20:20:26.408Z,52.20
2023-03-18T20:23:12.068Z,51.60
2023-03-18T20:25:43.672Z,51.20
2023-03-18T20:28:25.926Z,52.10
2023-03-18T20:30:56.305Z,51.50
2023-03-18T20:33:23.761Z,52.20
2023-03-18T20:35:53.582Z,52.30
2023-03-18T20:38:38.089Z,52.30
2023-03-18T20:41:07.110Z,51.80
2023-03-18T20:43:34.685Z,52.50
2023-03-18T20:46:02.272Z,52.60
2023-03-18T20:48:29.570Z,52.70
2023-03-18T20:50:56.565Z,52.80
2023-03-18T20:53:28.562Z,53.00
2023-03-18T20:55:56.413Z,53.00
2023-03-18T20:58:27.587Z,53.10
2023-03-18T21:00:55.082Z,53.10
2023-03-18T21:03:27.109Z,53.00
2023-03-18T21:05:57.294Z,53.10
2023-03-18T21:08:26.888Z,53.10
2023-03-18T21:10:55.430Z,53.20
2023-03-18T21:13:39.124Z,53.30
2023-03-18T21:16:14.077Z,52.70
2023-03-18T21:18:48.239Z,53.30
2023-03-18T21:21:26.546Z,53.40
2023-03-18T21:23:54.591Z,53.10
2023-03-18T21:26:23.458Z,53.50
2023-03-18T21:28:51.135Z,53.60
2023-03-18T21:31:31.330Z,53.60
2023-03-18T21:33:58.745Z,53.40
2023-03-18T21:36:26.139Z,53.90
2023-03-18T21:38:52.980Z,53.90
2023-03-18T21:41:25.743Z,54.10
2023-03-18T21:43:53.343Z,54.10
2023-03-18T21:46:28.431Z,54.20
2023-03-18T21:48:55.990Z,54.30
2023-03-18T21:51:39.679Z,54.30
2023-03-18T21:54:18.667Z,54.20
2023-03-18T21:56:45.606Z,54.30
2023-03-18T21:59:12.423Z,54.50
2023-03-18T22:01:39.348Z,54.50
2023-03-18T22:04:06.421Z,54.60
2023-03-18T22:06:34.031Z,54.70
2023-03-18T22:09:00.999Z,54.80
2023-03-18T22:11:28.194Z,54.90
2023-03-18T22:13:55.266Z,55.50
2023-03-18T22:16:22.555Z,55.00
2023-03-18T22:18:49.478Z,55.10
2023-03-18T22:21:28.333Z,55.10
2023-03-18T22:23:58.052Z,55.00
2023-03-18T22:26:27.918Z,55.20
2023-03-18T22:28:54.851Z,55.20
2023-03-18T22:31:26.451Z,55.20
2023-03-18T22:33:54.374Z,55.20
2023-03-18T22:36:25.527Z,55.20
2023-03-18T22:38:52.798Z,55.30
2023-03-18T22:41:29.487Z,55.30
2023-03-18T22:43:59.830Z,55.30
2023-03-18T22:46:28.394Z,55.50
2023-03-18T22:48:57.669Z,55.60
2023-03-18T22:51:29.028Z,55.70
2023-03-18T22:53:56.065Z,55.80
2023-03-18T22:56:23.441Z,55.90
2023-03-18T22:58:51.228Z,56.00
2023-03-18T23:01:26.386Z,56.10
2023-03-18T23:03:53.229Z,56.10
2023-03-18T23:06:23.832Z,56.20
2023-03-18T23:08:50.754Z,56.30
2023-03-18T23:11:17.889Z,56.90
2023-03-18T23:13:52.386Z,56.40
2023-03-18T23:16:22.800Z,56.50
2023-03-18T23:18:51.237Z,56.50
2023-03-18T23:21:25.429Z,56.50
2023-03-18T23:23:54.224Z,56.50
2023-03-18T23:26:21.559Z,56.60
2023-03-18T23:28:49.077Z,56.60
2023-03-18T23:31:17.094Z,56.60
2023-03-18T23:33:44.925Z,56.60
2023-03-18T23:36:12.271Z,56.60
2023-03-18T23:38:39.352Z,56.70
2023-03-18T23:41:07.204Z,56.70
2023-03-18T23:43:34.188Z,56.70
2023-03-18T23:46:02.159Z,56.70
2023-03-18T23:48:29.322Z,56.80
2023-03-18T23:50:56.134Z,56.70
2023-03-18T23:53:23.085Z,56.70
2023-03-18T23:55:50.256Z,56.70
2023-03-18T23:58:17.230Z,57.20
